createdAt,value
2023-01-10T00:05:14.160Z,91.01
2023-01-10T00:07:40.943Z,90.54
2023-01-10T00:10:09.904Z,91.03
2023-01-10T00:12:59.619Z,91.28
2023-01-10T00:15:35.469Z,91.24
2023-01-10T00:18:06.036Z,91.07
2023-01-10T00:20:41.725Z,91.05
2023-01-10T00:23:14.079Z,90.64
2023-01-10T00:26:02.679Z,90.18
2023-01-10T00:28:46.526Z,90.53
2023-01-10T00:31:18.351Z,90.47
2023-01-10T00:33:54.820Z,90.51
2023-01-10T00:36:21.447Z,90.11
2023-01-10T00:41:37.920Z,90.15
2023-01-10T00:44:25.871Z,89.75
2023-01-10T00:46:58.656Z,89.77
2023-01-10T00:49:44.161Z,90.46
2023-01-10T00:52:20.187Z,90.60
2023-01-10T00:54:52.652Z,90.87
2023-01-10T00:57:19.263Z,90.02
2023-01-10T00:59:51.173Z,90.65
2023-01-10T01:02:26.634Z,90.93
2023-01-10T01:05:14.037Z,91.18
2023-01-10T01:07:44.224Z,91.39
2023-01-10T01:10:28.553Z,91.21
2023-01-10T01:13:11.857Z,91.63
2023-01-10T01:18:30.701Z,91.18
2023-01-10T01:21:16.536Z,91.33
2023-01-10T01:23:57.112Z,91.29
2023-01-10T01:26:40.935Z,90.95
2023-01-10T01:29:43.021Z,91.87
2023-01-10T01:32:12.822Z,91.17
2023-01-10T01:34:39.518Z,91.74
2023-01-10T01:37:07.052Z,91.47
2023-01-10T01:39:33.467Z,91.84
2023-01-10T01:42:00.799Z,91.52
2023-01-10T01:44:33.938Z,91.28
2023-01-10T01:47:09.063Z,91.36
2023-01-10T01:49:40.033Z,91.57
2023-01-10T01:52:18.747Z,91.65
2023-01-10T01:54:45.186Z,91.22
2023-01-10T01:57:18.092Z,91.48
2023-01-10T01:59:47.870Z,91.63
2023-01-10T02:02:41.434Z,92.16
2023-01-10T02:05:31.067Z,92.09
2023-01-10T02:08:04.805Z,92.12
2023-01-10T02:10:59.524Z,92.24
2023-01-10T02:13:43.955Z,92.25
2023-01-10T02:16:19.067Z,92.40
2023-01-10T02:22:27.233Z,92.46
2023-01-10T02:25:30.455Z,92.75
2023-01-10T02:28:20.385Z,92.08
2023-01-10T02:30:46.870Z,92.54
2023-01-10T02:33:50.930Z,92.29
2023-01-10T02:36:26.668Z,91.92
2023-01-10T02:39:20.620Z,92.39
2023-01-10T02:42:09.491Z,92.29
2023-01-10T02:44:50.050Z,91.87
2023-01-10T02:47:19.364Z,91.75
2023-01-10T02:49:51.276Z,92.19
2023-01-10T02:52:23.314Z,91.54
2023-01-10T02:55:03.008Z,91.73
2023-01-10T02:57:56.749Z,91.95
2023-01-10T03:00:57.658Z,91.88
2023-01-10T03:03:59.917Z,92.24
2023-01-10T03:06:31.660Z,92.31
2023-01-10T03:09:16.237Z,92.23
2023-01-10T03:11:52.406Z,92.10
2023-01-10T03:14:25.619Z,92.68
2023-01-10T03:17:05.823Z,92.26
2023-01-10T03:19:44.900Z,92.78
2023-01-10T03:22:23.957Z,92.56
2023-01-10T03:24:58.774Z,92.14
2023-01-10T03:27:43.480Z,92.61
2023-01-10T03:30:26.605Z,92.03
2023-01-10T03:32:56.219Z,92.00
2023-01-10T03:35:31.217Z,92.11
2023-01-10T03:43:46.610Z,92.50
2023-01-10T03:46:33.770Z,93.09
2023-01-10T03:51:34.909Z,92.86
2023-01-10T03:57:02.818Z,92.83
2023-01-10T03:59:53.169Z,92.79
2023-01-10T04:02:20.575Z,93.17
2023-01-10T04:04:57.770Z,93.35
2023-01-10T04:07:25.275Z,93.58
2023-01-10T04:09:51.832Z,93.51
2023-01-10T04:12:25.705Z,93.60
2023-01-10T04:14:58.906Z,94.23
2023-01-10T04:17:43.449Z,94.57
2023-01-10T04:20:18.093Z,94.10
2023-01-10T04:22:49.705Z,93.84
2023-01-10T04:25:21.040Z,94.40
2023-01-10T04:27:52.861Z,93.98
2023-01-10T04:30:34.480Z,94.42
2023-01-10T04:33:01.147Z,93.99
2023-01-10T04:35:31.341Z,93.73
2023-01-10T04:38:02.246Z,93.47
2023-01-10T04:40:30.582Z,93.69
2023-01-10T04:43:10.321Z,93.90
2023-01-10T04:45:39.454Z,93.45
2023-01-10T04:53:05.762Z,93.02
2023-01-10T04:55:33.075Z,93.18
2023-01-10T04:58:01.836Z,92.81
2023-01-10T05:00:31.355Z,92.61
2023-01-10T05:05:44.027Z,92.56
2023-01-10T05:08:20.664Z,92.10
2023-01-10T05:10:50.073Z,92.85
2023-01-10T05:13:19.492Z,92.49
2023-01-10T05:15:51.242Z,92.71
2023-01-10T05:18:22.395Z,92.64
2023-01-10T05:21:00.489Z,92.11
2023-01-10T05:23:31.203Z,92.43
2023-01-10T05:26:04.662Z,92.26
2023-01-10T05:28:34.014Z,91.80
2023-01-10T05:31:00.710Z,91.58
2023-01-10T05:33:27.636Z,90.94
2023-01-10T05:35:54.082Z,91.43
2023-01-10T05:38:20.569Z,91.02
2023-01-10T05:40:47.048Z,90.43
2023-01-10T05:43:13.588Z,90.11
2023-01-10T05:45:40.076Z,90.02
2023-01-10T05:48:06.982Z,89.97
2023-01-10T05:50:34.653Z,89.30
2023-01-10T05:53:05.601Z,89.70
2023-01-10T05:56:04.576Z,87.90
2023-01-10T05:58:47.425Z,88.01
2023-01-10T06:01:21.712Z,88.45
2023-01-10T06:04:13.997Z,88.66
2023-01-10T06:07:09.594Z,88.15
2023-01-10T06:09:44.153Z,88.07
2023-01-10T06:12:13.711Z,88.19
2023-01-10T06:14:43.088Z,87.41
2023-01-10T06:17:10.885Z,87.93
2023-01-10T06:19:42.301Z,87.83
2023-01-10T06:22:15.688Z,88.00
2023-01-10T06:25:02.336Z,88.00
2023-01-10T06:27:42.358Z,88.77
2023-01-10T06:30:15.423Z,87.94
2023-01-10T06:32:51.632Z,88.20
2023-01-10T06:35:26.760Z,88.31
2023-01-10T06:38:07.317Z,88.04
2023-01-10T06:40:40.840Z,88.50
2023-01-10T06:43:31.432Z,87.82
2023-01-10T06:45:58.190Z,88.32
2023-01-10T06:48:30.022Z,88.38
2023-01-10T06:58:24.891Z,89.23
2023-01-10T07:01:29.859Z,88.74
2023-01-10T07:04:07.385Z,88.37
2023-01-10T07:06:43.417Z,88.90
2023-01-10T07:09:16.536Z,88.17
2023-01-10T07:11:53.008Z,89.11
2023-01-10T07:14:27.914Z,89.30
2023-01-10T07:17:07.996Z,89.03
2023-01-10T07:19:56.437Z,88.86
2023-01-10T07:22:22.967Z,89.11
2023-01-10T07:24:58.069Z,88.77
2023-01-10T07:27:31.562Z,88.70
2023-01-10T07:30:11.183Z,89.00
2023-01-10T07:32:57.190Z,89.47
2023-01-10T07:35:24.797Z,89.12
2023-01-10T07:43:27.783Z,88.96
2023-01-10T07:45:57.650Z,88.34
2023-01-10T07:49:05.041Z,88.36
2023-01-10T07:51:36.528Z,88.21
2023-01-10T07:58:14.047Z,88.31
2023-01-10T08:01:21.382Z,89.04
2023-01-10T08:05:00.278Z,88.76
2023-01-10T08:10:57.451Z,88.47
2023-01-10T08:13:58.157Z,88.49
2023-01-10T08:16:38.104Z,88.60
2023-01-10T08:22:18.326Z,87.84
2023-01-10T08:27:49.775Z,87.06
2023-01-10T08:35:30.996Z,87.10
2023-01-10T08:40:31.788Z,87.33
2023-01-10T08:43:09.761Z,87.29
2023-01-10T08:45:52.682Z,86.51
2023-01-10T08:51:05.013Z,86.81
2023-01-10T08:53:41.950Z,86.16
2023-01-10T08:56:13.966Z,86.60
2023-01-10T08:58:45.798Z,85.96
2023-01-10T09:03:54.558Z,86.18
2023-01-10T09:06:34.215Z,85.93
2023-01-10T09:09:08.528Z,86.43
2023-01-10T09:16:36.763Z,85.95
2023-01-10T09:19:36.417Z,85.91
2023-01-10T09:22:11.587Z,86.07
2023-01-10T09:24:48.652Z,85.97
2023-01-10T09:27:35.475Z,85.93
2023-01-10T09:30:06.619Z,84.73
2023-01-10T09:32:42.494Z,85.42
2023-01-10T09:35:17.834Z,85.03
2023-01-10T09:38:01.247Z,84.61
2023-01-10T09:40:48.383Z,84.94
2023-01-10T09:43:39.964Z,84.27
2023-01-10T09:46:43.894Z,84.28
2023-01-10T09:59:45.628Z,83.22
2023-01-10T10:05:45.741Z,81.96
2023-01-10T10:08:30.218Z,80.65
2023-01-10T10:12:18.288Z,80.57
2023-01-10T10:18:53.360Z,80.48
2023-01-10T10:21:48.934Z,81.00
2023-01-10T10:28:33.456Z,81.49
2023-01-10T10:35:24.054Z,80.38
2023-01-10T10:37:53.543Z,80.72
2023-01-10T10:40:25.782Z,80.64
2023-01-10T10:42:55.064Z,79.82
2023-01-10T10:45:52.035Z,79.66
2023-01-10T10:53:29.129Z,79.88
2023-01-10T10:56:05.470Z,78.42
2023-01-10T10:58:40.927Z,78.84
2023-01-10T11:01:15.652Z,78.43
2023-01-10T11:03:55.312Z,79.24
2023-01-10T11:06:37.425Z,77.65
2023-01-10T11:09:07.724Z,77.84
2023-01-10T11:11:49.522Z,76.16
2023-01-10T11:14:46.923Z,76.44
2023-01-10T11:17:22.801Z,76.20
2023-01-10T11:20:16.577Z,77.01
2023-01-10T11:22:53.971Z,76.93
2023-01-10T11:25:23.089Z,75.92
2023-01-10T11:27:59.951Z,74.20
2023-01-10T11:30:33.765Z,73.55
2023-01-10T11:33:03.107Z,73.29
2023-01-10T11:35:37.074Z,73.14
2023-01-10T11:41:08.637Z,73.69
2023-01-10T11:43:42.231Z,71.51
2023-01-10T11:49:08.446Z,73.27
2023-01-10T11:51:41.369Z,72.38
2023-01-10T11:57:08.835Z,73.34
2023-01-10T12:00:03.069Z,73.41
2023-01-10T12:02:57.386Z,73.95
2023-01-10T12:05:44.661Z,73.26
2023-01-10T12:08:39.355Z,74.46
2023-01-10T12:11:45.535Z,73.97
2023-01-10T12:15:21.430Z,73.55
2023-01-10T12:18:17.483Z,74.56
2023-01-10T12:20:58.827Z,74.83
2023-01-10T12:23:44.268Z,75.01
2023-01-10T12:26:20.235Z,75.45
2023-01-10T12:29:06.931Z,75.32
2023-01-10T12:31:41.315Z,75.69
2023-01-10T12:34:17.321Z,76.05
2023-01-10T12:37:38.007Z,76.07
2023-01-10T12:40:45.594Z,76.94
2023-01-10T12:43:38.499Z,76.33
2023-01-10T12:47:10.077Z,75.61
2023-01-10T12:51:15.928Z,74.97
2023-01-10T12:59:09.727Z,75.22
2023-01-10T13:06:37.310Z,74.65
2023-01-10T13:15:40.523Z,74.28
2023-01-10T13:18:49.119Z,73.73
2023-01-10T13:21:59.316Z,72.76
2023-01-10T13:25:56.131Z,73.12
2023-01-10T14:14:04.564Z,72.75
2023-01-10T14:17:23.926Z,73.59
2023-01-10T14:27:24.916Z,73.68
2023-01-10T14:51:47.003Z,75.26
2023-01-10T14:54:25.030Z,75.77
2023-01-10T15:04:37.721Z,76.68
2023-01-10T15:11:29.280Z,76.69
2023-01-10T15:14:19.005Z,76.54
2023-01-10T15:16:49.267Z,77.20
2023-01-10T15:40:24.453Z,76.03
2023-01-10T16:22:48.557Z,78.88
2023-01-10T16:25:39.293Z,79.04
2023-01-10T16:55:35.523Z,81.65
2023-01-10T17:03:19.202Z,81.70
2023-01-10T17:07:49.810Z,82.15
2023-01-10T17:10:52.476Z,82.51
2023-01-10T17:24:58.964Z,82.90
2023-01-10T17:28:01.372Z,82.83
2023-01-10T17:40:30.707Z,82.56
2023-01-10T17:46:22.203Z,82.71
2023-01-10T17:48:59.595Z,82.89
2023-01-10T17:51:54.986Z,82.64
2023-01-10T17:58:12.880Z,83.06
2023-01-10T18:01:11.720Z,83.50
2023-01-10T18:06:24.039Z,82.92
2023-01-10T18:08:57.376Z,83.24
2023-01-10T18:11:25.590Z,83.35
2023-01-10T18:14:03.262Z,82.76
2023-01-10T18:16:29.837Z,83.39
2023-01-10T18:18:58.772Z,83.20
2023-01-10T18:21:29.458Z,83.23
2023-01-10T18:24:27.501Z,83.24
2023-01-10T18:27:05.224Z,83.55
2023-01-10T18:36:50.520Z,83.09
2023-01-10T18:39:38.503Z,83.20
2023-01-10T18:42:19.259Z,83.11
2023-01-10T18:44:56.102Z,82.90
2023-01-10T18:47:37.920Z,82.61
2023-01-10T18:50:08.146Z,82.93
2023-01-10T18:52:36.653Z,83.04
2023-01-10T18:58:41.808Z,82.93
2023-01-10T19:01:17.954Z,83.10
2023-01-10T19:03:50.125Z,83.36
2023-01-10T19:06:18.963Z,83.21
2023-01-10T19:08:54.286Z,83.49
2023-01-10T19:11:21.112Z,83.54
2023-01-10T19:13:51.327Z,83.43
2023-01-10T19:19:12.274Z,83.23
2023-01-10T19:21:48.175Z,83.24
2023-01-10T19:24:24.997Z,83.66
2023-01-10T19:26:52.053Z,83.13
2023-01-10T19:29:30.398Z,83.33
2023-01-10T19:31:59.813Z,83.40
2023-01-10T19:34:29.387Z,83.35
2023-01-10T19:37:28.968Z,82.99
2023-01-10T19:40:11.453Z,82.84
2023-01-10T19:42:41.704Z,82.84
2023-01-10T19:45:18.954Z,82.61
2023-01-10T19:47:45.571Z,82.90
2023-01-10T19:50:13.507Z,83.08
2023-01-10T19:52:48.876Z,83.14
2023-01-10T19:55:24.976Z,83.09
2023-01-10T20:06:03.495Z,83.16
2023-01-10T20:11:25.893Z,83.61
2023-01-10T20:14:02.502Z,83.70
2023-01-10T20:16:36.037Z,83.71
2023-01-10T20:19:25.821Z,83.15
2023-01-10T20:21:59.220Z,82.94
2023-01-10T20:27:16.951Z,82.92
2023-01-10T20:32:15.298Z,82.85
2023-01-10T20:35:02.147Z,82.90
2023-01-10T20:37:33.230Z,83.00
2023-01-10T20:40:04.511Z,82.88
2023-01-10T20:42:33.075Z,82.91
2023-01-10T20:44:59.806Z,83.37
2023-01-10T20:47:30.872Z,82.87
2023-01-10T20:49:57.551Z,83.03
2023-01-10T20:52:24.396Z,82.64
2023-01-10T20:57:26.521Z,82.65
2023-01-10T20:59:58.433Z,82.95
2023-01-10T21:02:29.853Z,82.62
2023-01-10T21:05:06.813Z,82.30
2023-01-10T21:07:37.376Z,82.30
2023-01-10T21:10:28.245Z,82.25
2023-01-10T21:12:57.404Z,81.82
2023-01-10T21:15:53.958Z,81.64
2023-01-10T21:18:29.003Z,81.68
2023-01-10T21:21:01.126Z,81.58
2023-01-10T21:23:33.299Z,81.75
2023-01-10T21:26:03.182Z,80.82
2023-01-10T21:28:33.458Z,80.91
2023-01-10T21:31:24.131Z,81.16
2023-01-10T21:36:23.726Z,80.61
2023-01-10T21:38:59.685Z,80.38
2023-01-10T21:41:46.048Z,79.79
2023-01-10T21:44:15.846Z,80.00
2023-01-10T21:47:15.405Z,80.20
2023-01-10T21:49:42.401Z,80.48
2023-01-10T21:54:43.573Z,79.99
2023-01-10T21:57:28.009Z,79.61
2023-01-10T22:02:35.525Z,79.87
2023-01-10T22:05:02.853Z,79.52
2023-01-10T22:07:29.725Z,79.74
2023-01-10T22:10:09.156Z,79.05
2023-01-10T22:12:39.881Z,78.61
2023-01-10T22:15:11.413Z,78.35
2023-01-10T22:17:38.142Z,78.22
2023-01-10T22:20:09.133Z,78.23
2023-01-10T22:22:37.442Z,78.25
2023-01-10T22:25:04.890Z,78.63
2023-01-10T22:27:31.558Z,77.98
2023-01-10T22:30:30.392Z,78.46
2023-01-10T22:33:00.493Z,77.80
2023-01-10T22:35:30.391Z,77.85
2023-01-10T22:37:56.979Z,78.15
2023-01-10T22:40:24.083Z,77.73
2023-01-10T22:42:55.039Z,77.92
2023-01-10T22:45:21.630Z,77.98
2023-01-10T22:47:53.263Z,77.79
2023-01-10T22:50:23.303Z,77.55
2023-01-10T22:52:54.483Z,77.86
2023-01-10T22:55:22.522Z,77.78
2023-01-10T22:57:56.336Z,77.49
2023-01-10T23:00:27.672Z,76.92
2023-01-10T23:03:13.086Z,77.61
2023-01-10T23:05:48.779Z,78.23
2023-01-10T23:08:28.435Z,78.76
2023-01-10T23:10:58.473Z,79.18
2023-01-10T23:13:34.610Z,79.68
2023-01-10T23:16:27.696Z,79.98
2023-01-10T23:18:59.443Z,80.29
2023-01-10T23:21:29.185Z,79.75
2023-01-10T23:24:07.666Z,80.16
2023-01-10T23:26:35.835Z,80.12
2023-01-10T23:29:05.516Z,80.46
2023-01-10T23:31:34.631Z,80.44
2023-01-10T23:37:11.316Z,79.66
2023-01-10T23:39:54.440Z,80.13
2023-01-10T23:42:40.016Z,80.66
2023-01-10T23:45:08.001Z,79.37
2023-01-10T23:48:04.839Z,79.08
2023-01-10T23:50:38.716Z,78.92
2023-01-10T23:53:12.424Z,78.47
2023-01-10T23:55:44.599Z,78.60
2023-01-10T23:58:14.342Z,78.58
